N337B NC06-ZZZZ

Flight info

Callsign N337B
Flight time N/A
Altitude 7500
Route DCT
Aircraft C337/L-V/N

Departure

Time 2026-05-07 19:18
Airport Elk River Airport (NC06)

Arrival

Time N/A
Airport ZZZZ
Time Latitude Longitude Altitude Speed Heading
2026-05-07 19:16 36.15746 -81.88841 3479 ft 0 kts 24°
2026-05-07 19:17 36.15747 -81.88841 3479 ft 0 kts 24°
2026-05-07 19:17 36.15769 -81.88837 3479 ft 0 kts 300°
2026-05-07 19:17 36.15793 -81.88893 3476 ft 31 kts 296°
2026-05-07 19:17 36.15980 -81.89310 3511 ft 75 kts 297°
2026-05-07 19:18 36.16270 -81.89901 3784 ft 78 kts 301°
2026-05-07 19:18 36.16553 -81.90445 4062 ft 80 kts 303°
2026-05-07 19:18 36.16911 -81.91052 4246 ft 90 kts 309°
2026-05-07 19:18 36.17341 -81.91648 4504 ft 95 kts 314°
2026-05-07 19:19 36.17867 -81.92111 4810 ft 97 kts 322°
2026-05-07 19:19 36.18494 -81.92594 5012 ft 108 kts 323°
2026-05-07 19:19 36.19105 -81.93013 5454 ft 99 kts 335°
2026-05-07 19:19 36.19886 -81.92978 5575 ft 126 kts
2026-05-07 19:20 36.20735 -81.92521 5724 ft 141 kts 19°
2026-05-07 19:20 36.21668 -81.91974 5723 ft 155 kts 18°
2026-05-07 19:20 36.22648 -81.91405 5777 ft 157 kts 18°
2026-05-07 19:20 36.23689 -81.90903 5666 ft 163 kts
2026-05-07 19:21 36.24802 -81.90678 5583 ft 163 kts 356°
2026-05-07 19:21 36.25937 -81.90866 5332 ft 165 kts 338°
2026-05-07 19:21 36.26929 -81.91555 5147 ft 160 kts 322°
2026-05-07 19:21 36.27824 -81.92336 5047 ft 158 kts 322°
2026-05-07 19:22 36.28789 -81.93099 4856 ft 168 kts 326°
2026-05-07 19:22 36.29757 -81.93810 4916 ft 160 kts 327°
2026-05-07 19:22 36.30687 -81.94513 4930 ft 156 kts 325°
2026-05-07 19:22 36.31586 -81.95236 4929 ft 151 kts 315°
2026-05-07 19:23 36.32058 -81.96414 4827 ft 155 kts 283°
2026-05-07 19:23 36.32214 -81.97727 4832 ft 154 kts 278°
2026-05-07 19:23 36.32349 -81.99058 4798 ft 156 kts 278°
2026-05-07 19:23 36.32437 -82.00412 4669 ft 160 kts 274°
2026-05-07 19:24 36.32506 -82.01784 4621 ft 158 kts 272°
2026-05-07 19:24 36.32479 -82.03158 4525 ft 160 kts 268°
2026-05-07 19:24 36.32403 -82.04504 4463 ft 159 kts 267°
2026-05-07 19:24 36.32311 -82.05877 4373 ft 160 kts 266°
2026-05-07 19:25 36.32212 -82.07259 4308 ft 161 kts 266°
2026-05-07 19:25 36.32102 -82.08634 4258 ft 160 kts 265°
2026-05-07 19:25 36.31942 -82.10003 4140 ft 160 kts 263°
2026-05-07 19:25 36.32214 -82.11269 3907 ft 163 kts 309°
2026-05-07 19:26 36.33192 -82.12016 3623 ft 168 kts 337°
2026-05-07 19:26 36.34175 -82.12628 3618 ft 157 kts 317°
2026-05-07 19:26 36.34605 -82.13898 3104 ft 174 kts 272°
2026-05-07 19:26 36.34186 -82.15257 2853 ft 170 kts 228°
2026-05-07 19:27 36.33392 -82.16231 2869 ft 151 kts 235°
2026-05-07 19:27 36.33270 -82.17420 2789 ft 148 kts 296°
2026-05-07 19:27 36.34111 -82.18140 2585 ft 159 kts 348°
2026-05-07 19:27 36.35151 -82.17788 2576 ft 160 kts 38°
2026-05-07 19:28 36.35717 -82.16705 2597 ft 143 kts 60°
2026-05-07 19:28 36.36225 -82.15675 2579 ft 137 kts 56°
2026-05-07 19:28 36.36687 -82.14661 2563 ft 135 kts 64°
2026-05-07 19:28 36.37068 -82.13646 2529 ft 126 kts 46°
2026-05-07 19:29 36.37808 -82.13412 2357 ft 107 kts 335°
2026-05-07 19:29 36.38325 -82.13962 2212 ft 97 kts 286°
2026-05-07 19:29 36.38252 -82.14760 2072 ft 86 kts 258°
2026-05-07 19:29 36.38045 -82.15441 1942 ft 83 kts 248°
2026-05-07 19:30 36.37766 -82.16062 1818 ft 79 kts 239°
2026-05-07 19:30 36.37496 -82.16607 1637 ft 69 kts 240°
2026-05-07 19:30 36.37289 -82.17013 1599 ft 39 kts 241°
2026-05-07 19:30 36.37241 -82.17121 1599 ft 1 kts 263°
2026-05-07 19:31 36.37264 -82.17157 1598 ft 0 kts 329°
2026-05-07 19:31 36.37276 -82.17161 1598 ft 5 kts 21°
2026-05-07 19:31 36.37296 -82.17126 1597 ft 5 kts 54°
2026-05-07 19:32 36.37315 -82.17091 1598 ft 6 kts 56°
2026-05-07 19:32 36.37341 -82.17041 1599 ft 9 kts 57°
2026-05-07 19:32 36.37386 -82.16958 1601 ft 15 kts 55°
2026-05-07 19:32 36.37430 -82.16872 1599 ft 9 kts 46°
2026-05-07 19:33 36.37470 -82.16820 1600 ft 8 kts 57°
2026-05-07 19:33 36.37493 -82.16773 1601 ft 5 kts 62°
2026-05-07 19:33 36.37501 -82.16749 1601 ft 0 kts 96°
2026-05-07 19:34 36.37496 -82.16736 1601 ft 0 kts 128°
2026-05-07 19:34 36.37496 -82.16735 1601 ft 1 kts 128°
2026-05-07 19:35 36.37459 -82.16700 1599 ft 7 kts 164°
2026-05-07 19:35 36.37447 -82.16709 1599 ft 3 kts 234°
2026-05-07 19:35 36.37305 -82.16982 1599 ft 68 kts 238°
2026-05-07 19:35 36.36989 -82.17583 1780 ft 89 kts 240°
2026-05-07 19:36 36.36678 -82.18221 2147 ft 93 kts 239°
2026-05-07 19:36 36.36291 -82.18953 2464 ft 105 kts 237°
2026-05-07 19:36 36.35890 -82.19719 2883 ft 107 kts 237°
2026-05-07 19:36 36.35419 -82.20560 2894 ft 132 kts 238°
2026-05-07 19:37 36.34868 -82.21559 2902 ft 148 kts 238°
2026-05-07 19:37 36.34261 -82.22651 2896 ft 158 kts 237°
2026-05-07 19:37 36.33642 -82.23779 2903 ft 162 kts 238°
2026-05-07 19:37 36.33004 -82.24948 2898 ft 164 kts 238°
2026-05-07 19:38 36.32361 -82.26118 2893 ft 165 kts 237°
2026-05-07 19:38 36.31713 -82.27288 2896 ft 165 kts 238°
2026-05-07 19:38 36.31057 -82.28472 2895 ft 167 kts 238°
2026-05-07 19:38 36.30460 -82.29667 3008 ft 160 kts 244°
2026-05-07 19:39 36.29942 -82.30890 3061 ft 162 kts 245°
2026-05-07 19:39 36.29410 -82.32128 3067 ft 164 kts 244°
2026-05-07 19:39 36.28872 -82.33379 3064 ft 165 kts 244°
2026-05-07 19:39 36.28513 -82.34210 3061 ft 165 kts 244°
2026-05-07 19:40 36.27784 -82.35890 3061 ft 169 kts 244°
2026-05-07 19:40 36.27228 -82.37182 3059 ft 170 kts 245°
2026-05-07 19:40 36.26668 -82.38477 3075 ft 168 kts 243°
2026-05-07 19:40 36.25934 -82.39590 3130 ft 169 kts 227°
2026-05-07 19:41 36.25067 -82.40574 3143 ft 169 kts 224°
2026-05-07 19:41 36.24209 -82.41570 3153 ft 169 kts 227°
2026-05-07 19:41 36.23368 -82.42595 3156 ft 170 kts 227°
2026-05-07 19:41 36.22518 -82.43620 3154 ft 171 kts 227°
2026-05-07 19:42 36.21706 -82.44653 3187 ft 169 kts 230°
2026-05-07 19:42 36.20952 -82.45771 3166 ft 170 kts 236°
2026-05-07 19:42 36.20290 -82.46992 3145 ft 171 kts 240°
2026-05-07 19:42 36.19657 -82.48219 3205 ft 168 kts 239°
2026-05-07 19:43 36.18994 -82.49455 3053 ft 175 kts 238°
2026-05-07 19:43 36.18468 -82.50774 3026 ft 168 kts 261°
2026-05-07 19:43 36.18504 -82.52188 3034 ft 162 kts 278°
2026-05-07 19:43 36.18595 -82.53585 2995 ft 164 kts 272°
2026-05-07 19:44 36.18614 -82.54515 2989 ft 163 kts 274°
2026-05-07 19:44 36.18684 -82.56391 2998 ft 165 kts 275°
2026-05-07 19:44 36.18727 -82.57813 3004 ft 166 kts 273°
2026-05-07 19:44 36.18725 -82.59235 2998 ft 165 kts 271°
2026-05-07 19:45 36.18716 -82.60652 2997 ft 165 kts 272°
2026-05-07 19:45 36.18721 -82.62080 2940 ft 166 kts 272°
2026-05-07 19:45 36.18744 -82.63499 2959 ft 165 kts 273°
2026-05-07 19:45 36.18721 -82.64918 2944 ft 164 kts 270°
2026-05-07 19:46 36.18707 -82.65833 2943 ft 156 kts 273°
2026-05-07 19:46 36.18665 -82.67529 2914 ft 145 kts 269°
2026-05-07 19:46 36.18628 -82.68718 2928 ft 131 kts 270°
2026-05-07 19:46 36.18676 -82.69813 2897 ft 125 kts 279°
2026-05-07 19:47 36.18789 -82.70869 2829 ft 121 kts 280°
2026-05-07 19:47 36.19082 -82.71776 2879 ft 110 kts 308°
2026-05-07 19:47 36.19519 -82.72066 2787 ft 116 kts 355°
2026-05-07 19:47 36.20150 -82.71481 2683 ft 127 kts 74°
2026-05-07 19:48 36.19820 -82.70511 2589 ft 133 kts 149°
2026-05-07 19:48 36.18929 -82.70433 2533 ft 129 kts 187°
2026-05-07 19:48 36.18045 -82.70525 2541 ft 127 kts 185°
2026-05-07 19:48 36.16892 -82.70640 2554 ft 121 kts 186°
2026-05-07 19:49 36.16159 -82.70225 2408 ft 122 kts 122°
2026-05-07 19:49 36.16038 -82.69556 2344 ft 117 kts 81°
2026-05-07 19:49 36.16157 -82.68599 2324 ft 111 kts 65°
2026-05-07 19:49 36.16641 -82.67979 2159 ft 97 kts
2026-05-07 19:50 36.17297 -82.67976 1797 ft 91 kts
2026-05-07 19:50 36.17908 -82.67911 1527 ft 85 kts
2026-05-07 19:50 36.18436 -82.67850 1440 ft 57 kts
2026-05-07 19:50 36.18540 -82.67829 1439 ft 0 kts 168°
2026-05-07 19:51 36.18483 -82.67841 1440 ft 18 kts 187°
2026-05-07 19:51 36.18345 -82.67859 1438 ft 20 kts 186°
2026-05-07 19:51 36.18208 -82.67875 1435 ft 19 kts 183°
2026-05-07 19:51 36.18101 -82.67874 1433 ft 8 kts 145°
2026-05-07 19:52 36.18092 -82.67871 1433 ft 0 kts 214°
2026-05-07 19:53 36.18096 -82.67889 1433 ft 0 kts
2026-05-07 19:53 36.18209 -82.67875 1435 ft 46 kts
2026-05-07 19:53 36.18695 -82.67810 1534 ft 80 kts
2026-05-07 19:53 36.19200 -82.67676 1775 ft 78 kts 358°
2026-05-07 19:54 36.19745 -82.67618 2019 ft 77 kts
2026-05-07 19:54 36.20256 -82.67726 2211 ft 83 kts 314°
2026-05-07 19:54 36.20372 -82.68394 2491 ft 79 kts 275°
2026-05-07 19:54 36.20438 -82.69144 2591 ft 94 kts 282°
2026-05-07 19:55 36.20111 -82.69853 2706 ft 114 kts 207°
2026-05-07 19:55 36.19327 -82.70161 2826 ft 119 kts 200°
2026-05-07 19:55 36.18724 -82.70720 3055 ft 107 kts 244°
2026-05-07 19:55 36.18369 -82.71643 3060 ft 128 kts 250°
2026-05-07 19:56 36.18004 -82.72691 3079 ft 141 kts 248°
2026-05-07 19:56 36.17572 -82.73850 3045 ft 153 kts 247°
2026-05-07 19:56 36.17101 -82.74980 3199 ft 151 kts 245°
2026-05-07 19:56 36.16620 -82.76164 3204 ft 156 kts 246°
2026-05-07 19:57 36.16130 -82.77375 3196 ft 159 kts 246°
2026-05-07 19:57 36.15634 -82.78600 3199 ft 160 kts 246°
2026-05-07 19:57 36.15136 -82.79826 3199 ft 159 kts 245°
2026-05-07 19:57 36.14634 -82.81049 3197 ft 160 kts 246°
2026-05-07 19:58 36.14131 -82.82279 3193 ft 160 kts 246°
2026-05-07 19:58 36.13635 -82.83504 3196 ft 162 kts 246°
2026-05-07 19:58 36.13129 -82.84756 3192 ft 163 kts 246°
2026-05-07 19:58 36.12625 -82.86001 3190 ft 161 kts 245°
2026-05-07 19:59 36.12127 -82.87232 3193 ft 159 kts 246°
2026-05-07 19:59 36.11631 -82.88456 3186 ft 159 kts 245°
2026-05-07 19:59 36.11135 -82.89688 3188 ft 161 kts 246°
2026-05-07 19:59 36.10638 -82.90925 3185 ft 161 kts 246°
2026-05-07 20:00 36.10139 -82.92151 3181 ft 159 kts 246°
2026-05-07 20:00 36.09639 -82.93379 3182 ft 160 kts 246°
2026-05-07 20:00 36.09139 -82.94596 3181 ft 162 kts 246°
2026-05-07 20:00 36.08631 -82.95834 3184 ft 162 kts 246°
2026-05-07 20:01 36.08123 -82.97074 3182 ft 162 kts 246°
2026-05-07 20:01 36.07618 -82.98313 3185 ft 162 kts 246°
2026-05-07 20:01 36.07116 -82.99554 3179 ft 161 kts 246°
2026-05-07 20:01 36.06617 -83.00788 3172 ft 159 kts 246°
2026-05-07 20:02 36.06122 -83.02006 3174 ft 158 kts 247°
2026-05-07 20:02 36.05629 -83.03223 3170 ft 159 kts 247°
2026-05-07 20:02 36.04924 -83.04221 3163 ft 160 kts 218°
2026-05-07 20:02 36.03996 -83.05002 3166 ft 162 kts 217°
2026-05-07 20:03 36.03061 -83.05794 3168 ft 164 kts 217°
2026-05-07 20:03 36.02122 -83.06596 3170 ft 164 kts 218°
2026-05-07 20:03 36.01180 -83.07402 3167 ft 165 kts 217°
2026-05-07 20:03 36.00238 -83.08203 3165 ft 164 kts 218°
2026-05-07 20:04 35.99296 -83.09000 3167 ft 164 kts 217°
2026-05-07 20:04 35.98366 -83.09806 3171 ft 163 kts 220°
2026-05-07 20:04 35.97516 -83.10714 3159 ft 160 kts 234°
2026-05-07 20:04 35.96890 -83.11822 3173 ft 160 kts 239°
2026-05-07 20:05 35.96330 -83.13007 3173 ft 159 kts 251°
2026-05-07 20:05 35.96098 -83.14324 3168 ft 156 kts 270°
2026-05-07 20:05 35.96125 -83.15650 3174 ft 154 kts 275°
2026-05-07 20:05 35.96178 -83.16976 3178 ft 154 kts 275°
2026-05-07 20:06 35.96228 -83.18306 3182 ft 156 kts 276°
2026-05-07 20:06 35.96283 -83.19645 3186 ft 157 kts 275°
2026-05-07 20:06 35.96345 -83.21008 3183 ft 160 kts 276°
2026-05-07 20:06 35.96405 -83.22373 3178 ft 158 kts 275°
2026-05-07 20:07 35.96468 -83.23705 3173 ft 156 kts 276°
2026-05-07 20:07 35.96520 -83.25042 3180 ft 155 kts 274°
2026-05-07 20:07 35.96252 -83.26325 3171 ft 158 kts 245°
2026-05-07 20:07 35.95694 -83.27506 3170 ft 160 kts 243°
2026-05-07 20:08 35.95144 -83.28690 3183 ft 159 kts 244°
2026-05-07 20:08 35.94641 -83.29911 3184 ft 160 kts 247°
2026-05-07 20:08 35.94161 -83.31146 3185 ft 160 kts 248°
2026-05-07 20:08 35.93683 -83.32391 3179 ft 161 kts 247°
2026-05-07 20:09 35.93203 -83.33637 3186 ft 160 kts 247°
2026-05-07 20:09 35.92728 -83.34867 3189 ft 162 kts 247°
2026-05-07 20:09 35.92247 -83.36118 3193 ft 161 kts 247°
2026-05-07 20:10 35.91284 -83.38625 3164 ft 163 kts 247°
2026-05-07 20:10 35.90791 -83.39904 3071 ft 167 kts 247°
2026-05-07 20:10 35.90284 -83.41215 2975 ft 171 kts 247°
2026-05-07 20:10 35.89772 -83.42543 2885 ft 172 kts 246°
2026-05-07 20:11 35.89255 -83.43883 2762 ft 171 kts 246°
2026-05-07 20:11 35.88769 -83.45140 2620 ft 154 kts 246°
2026-05-07 20:11 35.88331 -83.46282 2467 ft 146 kts 246°
2026-05-07 20:11 35.87899 -83.47399 2300 ft 142 kts 245°
2026-05-07 20:12 35.87476 -83.48489 2136 ft 140 kts 245°
2026-05-07 20:12 35.87069 -83.49564 2016 ft 134 kts 249°
2026-05-07 20:12 35.87099 -83.50650 2017 ft 126 kts 284°
2026-05-07 20:12 35.87287 -83.51684 2022 ft 122 kts 283°
2026-05-07 20:13 35.87466 -83.52702 2021 ft 121 kts 283°
2026-05-07 20:13 35.87643 -83.53712 2004 ft 121 kts 282°
2026-05-07 20:13 35.87772 -83.54753 1951 ft 124 kts 277°
2026-05-07 20:13 35.87607 -83.55755 1792 ft 125 kts 232°
2026-05-07 20:14 35.86906 -83.56219 1706 ft 105 kts 197°
2026-05-07 20:14 35.86257 -83.56102 1604 ft 99 kts 138°
2026-05-07 20:14 35.86076 -83.55369 1411 ft 85 kts 95°
2026-05-07 20:14 35.86012 -83.54705 1263 ft 71 kts 102°
2026-05-07 20:15 35.85932 -83.54097 1110 ft 73 kts 99°
2026-05-07 20:15 35.85859 -83.53529 1014 ft 59 kts 99°
2026-05-07 20:15 35.85811 -83.53154 1014 ft 24 kts 93°
2026-05-07 20:15 35.85864 -83.53074 1013 ft 12 kts 44°
2026-05-07 20:16 35.85914 -83.53052 1013 ft 7 kts 139°
2026-05-07 20:16 35.85906 -83.53052 1013 ft 0 kts 213°
2026-05-07 20:20 35.85905 -83.53052 1013 ft 1 kts 213°
2026-05-07 20:21 35.85871 -83.53069 1013 ft 8 kts 209°
2026-05-07 20:21 35.85865 -83.53129 1014 ft 7 kts 275°
2026-05-07 20:21 35.85874 -83.53207 1014 ft 11 kts 277°
2026-05-07 20:21 35.85887 -83.53317 1014 ft 14 kts 277°
2026-05-07 20:22 35.85904 -83.53450 1014 ft 17 kts 279°
2026-05-07 20:22 35.85918 -83.53597 1016 ft 18 kts 280°
2026-05-07 20:22 35.85942 -83.53746 1016 ft 10 kts 277°
2026-05-07 20:22 35.85933 -83.53776 1016 ft 0 kts 182°
2026-05-07 20:23 35.85901 -83.53778 1015 ft 9 kts 185°
2026-05-07 20:24 35.85890 -83.53769 1015 ft 0 kts 96°
2026-05-07 20:24 35.85861 -83.53516 1014 ft 59 kts 95°
2026-05-07 20:24 35.85756 -83.52892 1139 ft 81 kts 104°
2026-05-07 20:24 35.85622 -83.52219 1430 ft 84 kts 98°
2026-05-07 20:25 35.85558 -83.51503 1679 ft 85 kts 100°
2026-05-07 20:25 35.85454 -83.50771 1894 ft 91 kts 101°
2026-05-07 20:25 35.85398 -83.49982 2107 ft 101 kts 70°
2026-05-07 20:25 35.85963 -83.49439 2272 ft 112 kts 10°
2026-05-07 20:26 35.86766 -83.49220 2464 ft 122 kts 12°
2026-05-07 20:26 35.87654 -83.48994 2505 ft 141 kts
2026-05-07 20:26 35.88665 -83.48776 2510 ft 153 kts
2026-05-07 20:26 35.89703 -83.48428 2501 ft 158 kts 31°
2026-05-07 20:27 35.90433 -83.47413 2508 ft 164 kts 53°
2026-05-07 20:27 35.91118 -83.46265 2513 ft 168 kts 52°
2026-05-07 20:27 35.91819 -83.45099 2510 ft 170 kts 52°
2026-05-07 20:27 35.92523 -83.43924 2506 ft 171 kts 53°
2026-05-07 20:28 35.93232 -83.42744 2509 ft 171 kts 52°
2026-05-07 20:28 35.93940 -83.41562 2504 ft 172 kts 52°
2026-05-07 20:28 35.94651 -83.40373 2501 ft 173 kts 53°
2026-05-07 20:28 35.95365 -83.39182 2501 ft 172 kts 52°
2026-05-07 20:29 35.96068 -83.38011 2503 ft 171 kts 52°
2026-05-07 20:29 35.96774 -83.36829 2496 ft 171 kts 52°
2026-05-07 20:29 35.97478 -83.35653 2494 ft 170 kts 52°
2026-05-07 20:29 35.98181 -83.34480 2490 ft 170 kts 53°
2026-05-07 20:30 35.98869 -83.33289 2491 ft 170 kts 53°
2026-05-07 20:30 35.99555 -83.32096 2493 ft 171 kts 53°
2026-05-07 20:30 36.00246 -83.30905 2492 ft 170 kts 53°
2026-05-07 20:30 36.00935 -83.29717 2493 ft 170 kts 53°
2026-05-07 20:31 36.01626 -83.28526 2493 ft 171 kts 53°
2026-05-07 20:31 36.02308 -83.27348 2497 ft 171 kts 53°
2026-05-07 20:31 36.03000 -83.26153 2495 ft 171 kts 53°
2026-05-07 20:31 36.03690 -83.24960 2494 ft 171 kts 53°
2026-05-07 20:32 36.04381 -83.23766 2496 ft 171 kts 53°
2026-05-07 20:32 36.05074 -83.22568 2493 ft 172 kts 53°
2026-05-07 20:32 36.05770 -83.21364 2493 ft 172 kts 53°
2026-05-07 20:32 36.06462 -83.20164 2495 ft 171 kts 53°
2026-05-07 20:33 36.07157 -83.18964 2501 ft 172 kts 53°
2026-05-07 20:33 36.07851 -83.17764 2499 ft 172 kts 53°
2026-05-07 20:33 36.08535 -83.16577 2493 ft 172 kts 53°
2026-05-07 20:33 36.09233 -83.15372 2495 ft 172 kts 53°
2026-05-07 20:34 36.09924 -83.14171 2493 ft 171 kts 53°
2026-05-07 20:34 36.10614 -83.12974 2499 ft 171 kts 53°
2026-05-07 20:34 36.11308 -83.11772 2491 ft 172 kts 53°
2026-05-07 20:34 36.12004 -83.10563 2491 ft 173 kts 53°
2026-05-07 20:35 36.12698 -83.09360 2480 ft 171 kts 53°
2026-05-07 20:35 36.13387 -83.08164 2486 ft 171 kts 53°
2026-05-07 20:35 36.14068 -83.06981 2484 ft 171 kts 53°
2026-05-07 20:35 36.14759 -83.05780 2482 ft 172 kts 53°
2026-05-07 20:36 36.15451 -83.04577 2487 ft 171 kts 53°
2026-05-07 20:36 36.16140 -83.03378 2490 ft 171 kts 53°
2026-05-07 20:36 36.16832 -83.02178 2486 ft 171 kts 53°
2026-05-07 20:36 36.17522 -83.00978 2496 ft 171 kts 53°
2026-05-07 20:37 36.18210 -82.99778 2497 ft 171 kts 53°
2026-05-07 20:37 36.18901 -82.98575 2497 ft 171 kts 53°
2026-05-07 20:37 36.19590 -82.97373 2492 ft 171 kts 53°
2026-05-07 20:37 36.20283 -82.96168 2501 ft 172 kts 53°
2026-05-07 20:38 36.20965 -82.94982 2501 ft 171 kts 53°
2026-05-07 20:38 36.21655 -82.93779 2498 ft 171 kts 53°
2026-05-07 20:38 36.22341 -82.92581 2494 ft 170 kts 53°
2026-05-07 20:38 36.23025 -82.91386 2495 ft 170 kts 53°
2026-05-07 20:39 36.23711 -82.90189 2502 ft 171 kts 54°
2026-05-07 20:39 36.24399 -82.88990 2497 ft 171 kts 54°
2026-05-07 20:39 36.25083 -82.87793 2547 ft 167 kts 53°
2026-05-07 20:39 36.25725 -82.86669 2837 ft 153 kts 53°
2026-05-07 20:40 36.26317 -82.85637 3121 ft 145 kts 52°
2026-05-07 20:40 36.26925 -82.84579 3157 ft 157 kts 52°
2026-05-07 20:40 36.27569 -82.83452 3153 ft 163 kts 52°
2026-05-07 20:40 36.28230 -82.82295 3156 ft 166 kts 52°
2026-05-07 20:41 36.28905 -82.81116 3159 ft 169 kts 53°
2026-05-07 20:41 36.29588 -82.79917 3156 ft 171 kts 53°
2026-05-07 20:41 36.30275 -82.78712 3161 ft 171 kts 53°
2026-05-07 20:41 36.30961 -82.77511 3151 ft 171 kts 52°
2026-05-07 20:42 36.31638 -82.76325 3151 ft 170 kts 53°
2026-05-07 20:42 36.32320 -82.75130 3157 ft 170 kts 53°
2026-05-07 20:42 36.33001 -82.73936 3153 ft 170 kts 53°
2026-05-07 20:42 36.33687 -82.72732 3153 ft 171 kts 53°
2026-05-07 20:43 36.34374 -82.71525 3151 ft 172 kts 53°
2026-05-07 20:43 36.35065 -82.70317 3142 ft 171 kts 53°
2026-05-07 20:43 36.35748 -82.69116 3142 ft 169 kts 53°
2026-05-07 20:43 36.36427 -82.67921 3139 ft 170 kts 53°
2026-05-07 20:44 36.37108 -82.66724 3134 ft 170 kts 53°
2026-05-07 20:44 36.37780 -82.65546 3140 ft 169 kts 53°
2026-05-07 20:44 36.38456 -82.64356 3125 ft 168 kts 53°
2026-05-07 20:44 36.39130 -82.63171 3136 ft 169 kts 53°
2026-05-07 20:45 36.39808 -82.61978 3137 ft 170 kts 53°
2026-05-07 20:45 36.40490 -82.60776 3135 ft 170 kts 53°
2026-05-07 20:45 36.41171 -82.59577 3134 ft 169 kts 52°
2026-05-07 20:45 36.41850 -82.58383 3136 ft 169 kts 53°
2026-05-07 20:46 36.42528 -82.57188 3137 ft 170 kts 53°
2026-05-07 20:46 36.43207 -82.55985 3144 ft 170 kts 52°
2026-05-07 20:46 36.43891 -82.54784 3145 ft 170 kts 52°
2026-05-07 20:46 36.44561 -82.53602 3150 ft 170 kts 53°
2026-05-07 20:47 36.45241 -82.52399 3149 ft 170 kts 53°
2026-05-07 20:47 36.45926 -82.51193 3147 ft 172 kts 53°
2026-05-07 20:47 36.46613 -82.49979 3146 ft 171 kts 53°
2026-05-07 20:47 36.47299 -82.48767 3152 ft 171 kts 53°
2026-05-07 20:48 36.47983 -82.47560 3148 ft 171 kts 53°
2026-05-07 20:48 36.48668 -82.46350 3150 ft 172 kts 53°
2026-05-07 20:48 36.49354 -82.45135 3146 ft 172 kts 53°
2026-05-07 20:48 36.50033 -82.43936 3148 ft 171 kts 53°
2026-05-07 20:49 36.50717 -82.42726 3149 ft 171 kts 53°
2026-05-07 20:49 36.51396 -82.41517 3156 ft 171 kts 53°
2026-05-07 20:49 36.52080 -82.40308 3148 ft 171 kts 53°
2026-05-07 20:49 36.52767 -82.39094 3151 ft 172 kts 53°
2026-05-07 20:50 36.53453 -82.37876 3142 ft 171 kts 53°
2026-05-07 20:50 36.54138 -82.36663 3150 ft 171 kts 53°
2026-05-07 20:50 36.54823 -82.35450 3151 ft 172 kts 53°
2026-05-07 20:50 36.55501 -82.34245 3150 ft 172 kts 53°
2026-05-07 20:51 36.56187 -82.33029 3147 ft 172 kts 53°
2026-05-07 20:51 36.56870 -82.31816 3139 ft 170 kts 53°
2026-05-07 20:51 36.57545 -82.30614 3147 ft 170 kts 53°
2026-05-07 20:51 36.58227 -82.29406 3143 ft 171 kts 53°
2026-05-07 20:52 36.58911 -82.28192 3152 ft 171 kts 53°
2026-05-07 20:52 36.59586 -82.26989 3211 ft 167 kts 53°
2026-05-07 20:52 36.60243 -82.25821 3350 ft 163 kts 53°
2026-05-07 20:52 36.60894 -82.24664 3389 ft 166 kts 53°
2026-05-07 20:53 36.61564 -82.23471 3390 ft 169 kts 53°
2026-05-07 20:53 36.62232 -82.22281 3388 ft 171 kts 53°
2026-05-07 20:53 36.62918 -82.21063 3397 ft 172 kts 53°
2026-05-07 20:53 36.63607 -82.19836 3396 ft 173 kts 53°
2026-05-07 20:54 36.64295 -82.18605 3393 ft 172 kts 53°
2026-05-07 20:54 36.64980 -82.17386 3394 ft 171 kts 53°
2026-05-07 20:54 36.65663 -82.16167 3396 ft 172 kts 53°
2026-05-07 20:54 36.66346 -82.14950 3395 ft 171 kts 52°
2026-05-07 20:55 36.67027 -82.13734 3399 ft 172 kts 52°
2026-05-07 20:55 36.67702 -82.12527 3405 ft 173 kts 53°
2026-05-07 20:55 36.68391 -82.11299 3401 ft 173 kts 53°
2026-05-07 20:55 36.69076 -82.10074 3402 ft 171 kts 53°
2026-05-07 20:56 36.69755 -82.08860 3396 ft 171 kts 53°
2026-05-07 20:56 36.70435 -82.07646 3402 ft 172 kts 53°
2026-05-07 20:56 36.71122 -82.06418 3401 ft 173 kts 53°
2026-05-07 20:56 36.71807 -82.05189 3401 ft 173 kts 53°
2026-05-07 20:57 36.72493 -82.03963 3399 ft 172 kts 53°
2026-05-07 20:57 36.73181 -82.02731 3402 ft 174 kts 53°
2026-05-07 20:57 36.73875 -82.01487 3403 ft 175 kts 53°
2026-05-07 20:57 36.74561 -82.00257 3396 ft 174 kts 53°
2026-05-07 20:58 36.75250 -81.99022 3395 ft 173 kts 53°
2026-05-07 20:58 36.75942 -81.97786 3403 ft 176 kts 54°
2026-05-07 20:58 36.76637 -81.96531 3484 ft 172 kts 53°
2026-05-07 20:58 36.77295 -81.95351 3769 ft 161 kts 52°
2026-05-07 20:59 36.77946 -81.94190 3803 ft 168 kts 52°
2026-05-07 20:59 36.78624 -81.92969 3804 ft 174 kts 53°
2026-05-07 20:59 36.79317 -81.91725 3803 ft 175 kts 53°
2026-05-07 20:59 36.80014 -81.90471 3805 ft 177 kts 53°
2026-05-07 21:00 36.80711 -81.89219 3797 ft 179 kts 52°
2026-05-07 21:00 36.81418 -81.87946 3796 ft 178 kts 53°
2026-05-07 21:00 36.82121 -81.86679 3796 ft 177 kts 52°
2026-05-07 21:00 36.82825 -81.85413 3790 ft 177 kts 52°
2026-05-07 21:01 36.83527 -81.84151 3790 ft 176 kts 52°
2026-05-07 21:01 36.84224 -81.82896 3784 ft 176 kts 53°
2026-05-07 21:01 36.84919 -81.81642 3788 ft 175 kts 53°
2026-05-07 21:01 36.85603 -81.80412 3788 ft 174 kts 53°
2026-05-07 21:02 36.86300 -81.79154 3782 ft 173 kts 53°
2026-05-07 21:02 36.87139 -81.78137 3782 ft 170 kts 32°
2026-05-07 21:02 36.88122 -81.77300 3784 ft 172 kts 31°
2026-05-07 21:02 36.89080 -81.76400 3785 ft 173 kts 40°
2026-05-07 21:03 36.89844 -81.75227 3785 ft 175 kts 54°
2026-05-07 21:03 36.90483 -81.73929 3781 ft 175 kts 55°
2026-05-07 21:03 36.91134 -81.72646 3797 ft 173 kts 54°
2026-05-07 21:03 36.91758 -81.71438 4054 ft 159 kts 54°
2026-05-07 21:04 36.92347 -81.70300 4319 ft 153 kts 52°
2026-05-07 21:04 36.92924 -81.69192 4533 ft 155 kts 53°
2026-05-07 21:04 36.93546 -81.67998 4494 ft 170 kts 53°
2026-05-07 21:04 36.94192 -81.66753 4499 ft 177 kts 53°
2026-05-07 21:05 36.94864 -81.65451 4504 ft 179 kts 53°
2026-05-07 21:05 36.95543 -81.64139 4497 ft 181 kts 54°
2026-05-07 21:05 36.96230 -81.62811 4499 ft 183 kts 53°
2026-05-07 21:05 36.96923 -81.61471 4494 ft 184 kts 54°
2026-05-07 21:06 36.97621 -81.60120 4492 ft 186 kts 54°
2026-05-07 21:06 36.98318 -81.58766 4486 ft 184 kts 54°
2026-05-07 21:06 36.99006 -81.57427 4479 ft 181 kts 53°
2026-05-07 21:06 36.99653 -81.56183 4483 ft 167 kts 53°
2026-05-07 21:07 37.00265 -81.54997 4488 ft 159 kts 52°
2026-05-07 21:07 37.00855 -81.53854 4475 ft 154 kts 53°
2026-05-07 21:07 37.01418 -81.52729 4475 ft 152 kts 58°
2026-05-07 21:07 37.01846 -81.51503 4490 ft 158 kts 64°
2026-05-07 21:08 37.02268 -81.50190 4501 ft 166 kts 64°
2026-05-07 21:08 37.02707 -81.48839 4508 ft 169 kts 64°
2026-05-07 21:08 37.03150 -81.47465 4500 ft 171 kts 64°
2026-05-07 21:08 37.03590 -81.46083 4505 ft 171 kts 64°
2026-05-07 21:09 37.04022 -81.44730 4503 ft 162 kts 64°
2026-05-07 21:09 37.04375 -81.43435 4515 ft 159 kts 75°
2026-05-07 21:09 37.04517 -81.42117 4570 ft 145 kts 79°
2026-05-07 21:09 37.04719 -81.40905 4476 ft 139 kts 71°
2026-05-07 21:10 37.04942 -81.39759 4442 ft 134 kts 70°
2026-05-07 21:10 37.05212 -81.38640 4395 ft 135 kts 59°
2026-05-07 21:10 37.05854 -81.37850 4291 ft 129 kts 22°
2026-05-07 21:10 37.06693 -81.37492 4194 ft 128 kts
2026-05-07 21:11 37.07464 -81.36946 4081 ft 136 kts 47°
2026-05-07 21:11 37.07872 -81.35881 4009 ft 135 kts 58°
2026-05-07 21:11 37.08773 -81.33894 4005 ft 125 kts 56°
2026-05-07 21:12 37.09234 -81.33032 3979 ft 112 kts 30°
2026-05-07 21:12 37.09895 -81.33052 3846 ft 95 kts 326°
2026-05-07 21:12 37.10439 -81.33487 3679 ft 91 kts 321°
2026-05-07 21:12 37.10784 -81.34079 3459 ft 90 kts 268°
2026-05-07 21:13 37.10581 -81.34837 3386 ft 94 kts 248°
2026-05-07 21:13 37.10307 -81.35487 3330 ft 77 kts 246°
2026-05-07 21:13 37.10048 -81.36057 3216 ft 77 kts 243°
2026-05-07 21:13 37.09785 -81.36582 3082 ft 63 kts 238°
2026-05-07 21:14 37.09542 -81.37053 3123 ft 76 kts 239°
2026-05-07 21:14 37.09238 -81.37605 3371 ft 80 kts 239°
2026-05-07 21:14 37.08908 -81.38196 3655 ft 85 kts 242°
2026-05-07 21:14 37.08421 -81.38556 3909 ft 99 kts 171°
2026-05-07 21:15 37.07767 -81.38084 4013 ft 117 kts 151°
2026-05-07 21:15 37.07453 -81.37160 4063 ft 131 kts 72°
2026-05-07 21:15 37.07868 -81.36169 4072 ft 132 kts 54°
2026-05-07 21:15 37.08347 -81.35168 4078 ft 137 kts 53°
2026-05-07 21:16 37.08839 -81.34135 4083 ft 139 kts 55°
2026-05-07 21:16 37.09394 -81.33249 3974 ft 123 kts 23°
2026-05-07 21:16 37.10169 -81.33272 3795 ft 108 kts 326°
2026-05-07 21:16 37.10686 -81.33838 3701 ft 95 kts 294°
2026-05-07 21:17 37.10640 -81.34640 3522 ft 90 kts 254°
2026-05-07 21:17 37.10389 -81.35344 3359 ft 88 kts 246°
2026-05-07 21:17 37.10099 -81.35951 3197 ft 75 kts 244°
2026-05-07 21:17 37.09842 -81.36466 3087 ft 67 kts 243°
2026-05-07 21:18 37.09677 -81.36793 3089 ft 15 kts 243°
2026-05-07 21:18 37.09697 -81.36797 3088 ft 0 kts 51°